Flag for Australia

Past Weather in Penrith, New South Wales, Australia — January 2020

Currently: 82 °F. Overcast. (Weather station: Richmond Aus-Afb, Australia). See more current weather

January 2020 Weather in Penrith — Graph

°F

High & Low Weather Summary for January 2020

 TemperatureHumidityPressure
High117 °F (Jan 4, 3:30 pm)100% (Jan 6, 9:00 pm)30.21 "Hg (Jan 6, 9:00 pm)
Low61 °F (Jan 21, 6:00 am)8% (Jan 4, 3:30 pm)29.45 "Hg (Jan 20, 2:30 pm)
Average77 °F70%29.88 "Hg
* Reported Jan 1 12:00 am — Jan 31 11:30 pm, Penrith. Weather by CustomWeather, © 2021

Note: Actual official high and low records may vary slightly from our data, if they occured in-between our weather recording intervals... More about our weather records

Penrith Weather History for January 1, 2020

Scroll right to see more
 ConditionsComfort  
Time TempWeatherWind HumidityBarometerVisibility
12:00 am
Wed, Jan 1
70 °FPassing clouds.12 mph60%29.98 "HgN/A
12:30 am70 °FPassing clouds.7 mph60%29.95 "HgN/A
1:00 am68 °FPassing clouds.7 mph60%29.92 "HgN/A
1:30 am68 °FPassing clouds.7 mph60%29.95 "HgN/A
2:00 am68 °FPassing clouds.7 mph60%29.92 "HgN/A
2:30 am68 °FPassing clouds.8 mph64%29.92 "HgN/A
3:00 am68 °FOvercast.8 mph64%29.92 "HgN/A
3:30 am68 °FOvercast.6 mph60%29.92 "HgN/A
4:00 am68 °FOvercast.7 mph60%29.92 "HgN/A
4:30 am68 °FOvercast.7 mph60%29.92 "HgN/A
5:00 am68 °FOvercast.8 mph64%29.92 "HgN/A
5:30 am68 °FOvercast.8 mph64%29.92 "HgN/A
6:00 am68 °FOvercast.6 mph60%29.92 "HgN/A
6:30 am68 °FOvercast.8 mph60%29.92 "HgN/A
7:00 am68 °FOvercast.8 mph64%29.95 "HgN/A
7:30 am68 °FOvercast.7 mph64%29.95 "HgN/A
8:00 am70 °FOvercast.3 mph60%29.98 "HgN/A
8:30 am72 °FOvercast.5 mph57%29.95 "HgN/A
9:00 am72 °FOvercast.3 mph57%29.95 "HgN/A
9:30 am73 °FMostly cloudy.5 mph53%29.95 "HgN/A
10:00 am77 °FOvercast.2 mph51%29.95 "HgN/A
10:30 am77 °FPartly sunny.8 mph51%29.95 "HgN/A
11:00 am79 °FScattered clouds.6 mph51%29.92 "HgN/A
11:30 am79 °FScattered clouds.6 mph48%29.92 "HgN/A
12:00 pm82 °FScattered clouds.6 mph45%29.89 "HgN/A
12:30 pm84 °FSunny.7 mph40%29.89 "HgN/A
1:00 pm86 °FSunny.13 mph38%29.86 "HgN/A
1:30 pm86 °FSunny.8 mph38%29.86 "HgN/A
2:00 pm90 °FSunny.10 mph33%29.83 "HgN/A
2:30 pm90 °FSunny.17 mph36%29.83 "HgN/A
3:00 pm88 °FScattered clouds.21 mph40%29.86 "HgN/A
3:30 pm86 °FBroken clouds.18 mph43%29.86 "HgN/A
4:00 pm84 °FMostly cloudy.15 mph48%29.86 "HgN/A
4:30 pm84 °FMostly cloudy.16 mph48%29.86 "HgN/A
5:00 pm81 °FScattered clouds.15 mph54%29.89 "HgN/A
5:30 pm81 °FScattered clouds.15 mph54%29.89 "HgN/A
6:00 pm79 °FMore clouds than sun.15 mph58%29.92 "HgN/A
6:30 pm77 °FMostly cloudy.14 mph61%29.92 "HgN/A
7:00 pm75 °FOvercast.15 mph65%29.95 "HgN/A
7:30 pm75 °FOvercast.14 mph65%29.98 "HgN/A
8:00 pm73 °FOvercast.12 mph69%30.01 "HgN/A
8:30 pm73 °FOvercast.12 mph69%30.01 "HgN/A
9:00 pm73 °FOvercast.12 mph69%30.04 "HgN/A
9:30 pm73 °FMostly cloudy.12 mph69%30.04 "HgN/A
10:00 pm73 °FOvercast.12 mph69%30.04 "HgN/A
10:30 pm72 °FOvercast.10 mph73%30.07 "HgN/A
11:00 pm72 °FOvercast.10 mph73%30.07 "HgN/A
11:30 pm72 °FOvercast.10 mph73%30.07 "HgN/A
Weather by CustomWeather, © 2021

See weather overview